Time;durP1;ratioP1;P1;durP2;ratioP2;P2;SDS_P1;SDS_P2;PMS_P1;PMS_P2;Temp;Humidity;BMP_temperature;BMP_pressure;BME280_temperature;BME280_humidity;BME280_pressure;Samples;Min_cycle;Max_cycle;Signal;HPM_P1;HPM_P2
2022/03/10 00:46:31;;;;;;;;;39.75;32.00;;;;;11.94;44.90;101671.69;5028209;23;46919;-85
2022/03/10 00:49:09;;;;;;;;;35.25;30.00;;;;;11.93;44.99;101675.22;4965574;28;45509;-86
2022/03/10 00:51:36;;;;;;;;;38.25;33.75;;;;;11.87;45.10;101670.78;4964636;28;48066;-85
2022/03/10 00:54:04;;;;;;;;;36.50;33.25;;;;;11.88;45.46;101675.19;4978487;28;45362;-85
2022/03/10 00:56:30;;;;;;;;;38.25;32.50;;;;;11.86;45.03;101669.00;4951159;28;45393;-86
2022/03/10 00:58:55;;;;;;;;;33.25;30.50;;;;;11.86;45.11;101677.81;4958509;28;45769;-86
2022/03/10 01:01:25;;;;;;;;;36.00;31.50;;;;;11.78;45.22;101666.28;4959200;28;47304;-85
2022/03/10 01:03:54;;;;;;;;;35.75;29.25;;;;;11.81;45.34;101682.13;4962966;28;45380;-86
2022/03/10 01:06:21;;;;;;;;;34.75;31.50;;;;;11.73;45.37;101669.78;4951362;28;45526;-86
2022/03/10 01:08:56;;;;;;;;;36.00;32.50;;;;;11.67;45.50;101660.06;4959519;28;45766;-86
2022/03/10 01:11:26;;;;;;;;;33.25;31.00;;;;;11.74;45.42;101671.56;4971995;28;46699;-85
2022/03/10 01:13:54;;;;;;;;;26.25;26.00;;;;;11.71;45.61;101664.50;4983934;28;45678;-85
2022/03/10 01:16:25;;;;;;;;;40.00;32.00;;;;;11.76;45.60;101683.88;4988076;28;45430;-86
2022/03/10 01:18:58;;;;;;;;;36.00;33.00;;;;;11.66;45.55;101666.22;4961530;28;45527;-87
2022/03/10 01:21:29;;;;;;;;;35.25;32.00;;;;;11.74;45.50;101690.03;4955125;28;47252;-86
2022/03/10 01:23:55;;;;;;;;;34.00;29.25;;;;;11.65;45.46;101673.25;4963131;28;45382;-86
2022/03/10 01:26:25;;;;;;;;;36.75;32.75;;;;;11.69;45.58;101682.94;4962137;28;45477;-85
2022/03/10 01:28:53;;;;;;;;;36.25;33.75;;;;;11.60;45.60;101672.34;4968707;28;45202;-86
2022/03/10 01:31:21;;;;;;;;;26.75;26.00;;;;;11.63;45.72;101685.56;4962529;28;45264;-86
2022/03/10 01:33:47;;;;;;;;;35.25;29.50;;;;;11.60;45.76;101671.44;4952853;28;45404;-85
2022/03/10 01:36:39;;;;;;;;;37.25;32.25;;;;;11.54;45.73;101656.47;4959800;28;45289;-86
2022/03/10 01:39:14;;;;;;;;;32.50;30.75;;;;;11.54;45.81;101656.47;4955607;28;46067;-86
2022/03/10 01:41:40;;;;;;;;;33.50;31.50;;;;;11.52;45.76;101652.03;4979101;28;47123;-86
2022/03/10 01:44:08;;;;;;;;;36.25;32.50;;;;;11.62;45.85;101677.63;4962485;28;45342;-86
2022/03/10 01:46:37;;;;;;;;;35.00;31.25;;;;;11.44;45.84;101644.06;4959719;28;45681;-85
2022/03/10 01:49:06;;;;;;;;;42.25;34.00;;;;;11.49;45.81;101660.81;4964570;28;44883;-86
2022/03/10 01:51:36;;;;;;;;;31.50;30.25;;;;;11.43;45.83;101647.59;4968844;28;46198;-86
2022/03/10 01:54:04;;;;;;;;;33.25;24.75;;;;;11.48;45.89;101659.06;4958949;28;45225;-86
2022/03/10 01:56:32;;;;;;;;;41.75;31.75;;;;;11.44;45.73;101657.25;4961048;28;45245;-86
2022/03/10 01:59:00;;;;;;;;;43.50;34.50;;;;;11.39;45.87;101659.88;4947318;28;45301;-83
2022/03/10 02:01:31;;;;;;;;;40.25;36.00;;;;;11.45;46.14;101661.69;4962473;28;48318;-87
2022/03/10 02:03:59;;;;;;;;;31.25;29.50;;;;;11.33;45.99;101648.38;4954788;28;45594;-87
2022/03/10 02:06:25;;;;;;;;;33.25;32.25;;;;;11.37;46.13;101663.38;4950931;28;45396;-86
2022/03/10 02:11:45;;;;;;;;;31.00;29.25;;;;;11.27;45.70;101649.22;4962916;28;45787;-84
2022/03/10 02:19:39;;;;;;;;;32.25;30.00;;;;;11.29;45.62;101660.69;4945311;28;45443;-86
2022/03/10 02:22:14;;;;;;;;;34.00;28.75;;;;;11.27;45.50;101670.31;4959438;28;46788;-86
2022/03/10 02:24:41;;;;;;;;;29.25;27.50;;;;;11.27;45.63;101663.28;4959589;28;45536;-86
2022/03/10 02:27:14;;;;;;;;;28.50;27.75;;;;;11.31;45.45;101669.50;4963079;28;45335;-86
2022/03/10 02:29:43;;;;;;;;;30.00;28.75;;;;;11.18;45.67;101654.44;4947016;28;45380;-86
2022/03/10 02:32:17;;;;;;;;;35.75;31.75;;;;;11.27;45.73;101670.31;4945268;28;45349;-86
2022/03/10 02:34:43;;;;;;;;;36.50;28.75;;;;;11.21;46.18;101671.16;4961017;28;45218;-86
2022/03/10 02:37:14;;;;;;;;;34.75;32.50;;;;;11.11;46.45;101664.03;4959904;28;45268;-84
2022/03/10 02:39:41;;;;;;;;;35.75;33.00;;;;;10.95;46.41;101663.00;4964366;28;45364;-86
2022/03/10 02:42:10;;;;;;;;;35.25;29.25;;;;;10.96;46.73;101677.97;4961569;28;47255;-86
2022/03/10 02:44:43;;;;;;;;;32.25;29.50;;;;;10.94;46.93;101674.41;4960911;28;45439;-85
2022/03/10 02:47:09;;;;;;;;;34.00;29.25;;;;;10.89;46.74;101662.06;4960471;28;45511;-86
2022/03/10 02:49:38;;;;;;;;;36.25;32.25;;;;;10.83;46.97;101660.25;4945318;28;45471;-85
2022/03/10 02:52:10;;;;;;;;;34.50;30.50;;;;;10.84;46.81;101669.03;4960638;28;47167;-84
2022/03/10 02:54:36;;;;;;;;;36.50;31.50;;;;;10.78;46.81;101657.56;4960383;28;45296;-84
2022/03/10 02:57:04;;;;;;;;;38.00;33.50;;;;;10.80;46.50;101652.34;4955776;28;45295;-84
2022/03/10 02:59:35;;;;;;;;;33.75;28.75;;;;;10.75;46.68;101662.81;4959381;28;45764;-86
2022/03/10 03:02:02;;;;;;;;;31.50;28.75;;;;;10.84;46.84;101679.59;4958833;28;47421;-86
2022/03/10 03:04:27;;;;;;;;;39.25;33.00;;;;;10.83;46.61;101678.72;4958235;28;45381;-86
2022/03/10 03:06:56;;;;;;;;;29.50;28.25;;;;;10.76;46.75;101676.88;4960673;28;45319;-86
2022/03/10 03:09:34;;;;;;;;;35.75;30.75;;;;;10.82;46.75;101688.38;4980872;28;45474;-86
2022/03/10 03:12:03;;;;;;;;;39.75;33.50;;;;;10.76;46.59;101680.38;4950161;28;45297;-86
2022/03/10 03:14:32;;;;;;;;;29.50;26.25;;;;;10.70;46.54;101666.28;4977139;28;45571;-86
2022/03/10 03:16:59;;;;;;;;;29.00;27.50;;;;;10.82;46.66;101693.63;4973145;28;45410;-85
2022/03/10 03:19:36;;;;;;;;;32.25;29.00;;;;;10.74;46.50;101684.72;4959046;28;46332;-85
2022/03/10 03:22:12;;;;;;;;;34.25;29.50;;;;;10.72;46.51;101677.69;4943120;28;46365;-87
2022/03/10 03:24:45;;;;;;;;;28.75;26.75;;;;;10.64;46.54;101676.72;4961418;28;45442;-86
2022/03/10 03:27:14;;;;;;;;;36.25;30.25;;;;;10.67;46.73;101693.47;4966830;28;45259;-85
2022/03/10 03:29:44;;;;;;;;;34.00;27.00;;;;;10.57;46.64;101678.41;4946033;28;45543;-85
2022/03/10 03:32:13;;;;;;;;;35.75;31.25;;;;;10.66;46.70;101690.78;4949001;28;47430;-85
2022/03/10 03:34:41;;;;;;;;;32.00;26.00;;;;;10.59;46.70;101684.59;4957067;28;45378;-85
2022/03/10 03:37:06;;;;;;;;;31.25;28.50;;;;;10.58;46.67;101688.06;4942493;28;45249;-84
2022/03/10 03:39:32;;;;;;;;;31.75;26.25;;;;;10.55;46.81;101686.28;4969247;28;45603;-86
2022/03/10 03:42:00;;;;;;;;;33.00;29.75;;;;;10.54;46.68;101683.66;4948704;28;46328;-84
2022/03/10 03:44:28;;;;;;;;;28.75;27.75;;;;;10.56;46.77;101682.81;4957182;28;45276;-85
2022/03/10 03:46:53;;;;;;;;;31.00;30.50;;;;;10.57;46.34;101695.09;4960245;28;45510;-86
2022/03/10 03:49:19;;;;;;;;;30.75;29.00;;;;;10.62;46.86;101702.19;4976215;28;45421;-86
2022/03/10 03:51:47;;;;;;;;;30.50;27.75;;;;;10.53;46.58;101698.56;4977884;28;47228;-85
2022/03/10 03:54:15;;;;;;;;;37.50;31.25;;;;;10.58;46.89;101703.88;4960138;28;45763;-85
2022/03/10 03:56:43;;;;;;;;;35.25;30.00;;;;;10.45;46.87;101696.69;4956351;28;45264;-85
2022/03/10 03:59:11;;;;;;;;;30.00;29.50;;;;;10.53;46.92;101706.47;4960649;28;45453;-86
2022/03/10 04:01:39;;;;;;;;;37.50;33.75;;;;;10.46;46.95;101698.47;4958531;28;47365;-87
2022/03/10 04:04:19;;;;;;;;;32.75;28.75;;;;;10.54;46.77;101709.97;4964840;28;45775;-87
2022/03/10 04:06:47;;;;;;;;;27.50;26.50;;;;;10.38;46.79;101690.47;4968216;28;45396;-85
2022/03/10 04:09:15;;;;;;;;;30.00;29.25;;;;;10.43;46.72;101709.84;4964376;28;45564;-86
2022/03/10 04:11:45;;;;;;;;;33.50;30.00;;;;;10.46;47.10;101709.88;4948171;28;46219;-86
2022/03/10 04:14:18;;;;;;;;;29.25;26.75;;;;;10.37;46.95;101705.41;4963775;28;45560;-85
2022/03/10 04:16:44;;;;;;;;;34.75;29.50;;;;;10.42;47.15;101712.44;4989127;28;45466;-85
2022/03/10 04:19:12;;;;;;;;;30.75;29.50;;;;;10.39;47.12;101710.66;4968601;28;45803;-85
2022/03/10 04:21:41;;;;;;;;;32.00;29.25;;;;;10.40;47.17;101714.16;4944823;28;48229;-84
2022/03/10 04:24:07;;;;;;;;;28.25;25.75;;;;;10.37;47.16;101715.94;4947180;28;45378;-84
2022/03/10 04:26:33;;;;;;;;;30.00;29.00;;;;;10.28;47.49;101707.91;4962400;28;45450;-85
2022/03/10 04:28:58;;;;;;;;;33.75;31.50;;;;;10.31;47.23;101714.94;4945591;28;45361;-85
2022/03/10 04:31:24;;;;;;;;;30.00;27.75;;;;;10.28;47.39;101720.19;4960616;28;46501;-85
2022/03/10 04:33:49;;;;;;;;;30.50;25.25;;;;;10.19;47.47;101709.50;4960726;28;45722;-85
2022/03/10 04:36:44;;;;;;;;;33.75;30.25;;;;;10.14;47.50;101718.22;4944513;28;45440;-86
2022/03/10 04:39:17;;;;;;;;;33.00;30.50;;;;;10.19;47.65;101725.28;4968103;28;45361;-86
2022/03/10 04:41:45;;;;;;;;;34.25;30.75;;;;;10.08;47.81;101717.25;4962636;28;47099;-85
2022/03/10 04:44:11;;;;;;;;;30.25;24.25;;;;;10.02;47.74;101704.88;4966492;28;45296;-84
2022/03/10 04:46:42;;;;;;;;;29.00;28.50;;;;;10.14;47.98;101714.69;4954259;28;45213;-85
2022/03/10 04:49:08;;;;;;;;;30.25;26.50;;;;;10.17;47.82;101733.16;4960586;28;45452;-84
2022/03/10 04:51:36;;;;;;;;;29.50;28.25;;;;;10.06;48.01;101714.59;4945271;28;45383;-84
2022/03/10 04:54:04;;;;;;;;;38.00;33.75;;;;;10.03;47.72;101701.41;4959595;28;45235;-83
2022/03/10 04:56:33;;;;;;;;;33.00;26.75;;;;;10.05;47.95;101711.91;4963464;28;45295;-82
2022/03/10 04:59:02;;;;;;;;;34.50;28.25;;;;;9.98;47.66;101708.34;4945172;28;45555;-83
2022/03/10 05:01:39;;;;;;;;;31.50;30.00;;;;;9.99;48.12;101712.72;4962584;28;47042;-83
2022/03/10 05:04:05;;;;;;;;;30.25;28.00;;;;;10.03;48.13;101714.56;4959436;28;45249;-84
2022/03/10 05:06:30;;;;;;;;;35.50;30.75;;;;;9.96;47.96;101696.03;4957364;28;45238;-84
2022/03/10 05:08:59;;;;;;;;;29.25;27.50;;;;;10.06;48.20;101722.47;4970670;28;45520;-83
2022/03/10 05:11:32;;;;;;;;;32.25;28.25;;;;;9.87;48.26;101692.41;4979798;28;47602;-82
2022/03/10 05:13:57;;;;;;;;;29.25;28.75;;;;;10.05;48.13;101723.34;4958125;28;45439;-84
2022/03/10 05:16:23;;;;;;;;;33.00;28.50;;;;;9.95;48.24;101713.56;4976343;28;45807;-85
2022/03/10 05:18:50;;;;;;;;;39.50;35.00;;;;;9.99;48.24;101712.72;4955055;28;45445;-85
2022/03/10 05:21:21;;;;;;;;;32.00;31.50;;;;;9.88;48.29;101688.03;4958928;28;47812;-84
2022/03/10 05:24:02;;;;;;;;;34.25;29.75;;;;;9.88;48.11;101696.78;4960613;28;45418;-83
2022/03/10 05:26:30;;;;;;;;;32.50;30.50;;;;;9.91;48.08;101696.81;4958820;28;45202;-84
2022/03/10 05:28:56;;;;;;;;;34.00;28.75;;;;;9.94;48.18;101703.88;4955562;28;45539;-83
2022/03/10 05:31:21;;;;;;;;;29.50;28.50;;;;;10.01;48.50;101716.25;4952061;28;46387;-84
2022/03/10 05:33:49;;;;;;;;;40.25;35.50;;;;;9.99;48.50;101717.09;4954644;28;45404;-84
2022/03/10 05:36:15;;;;;;;;;33.00;31.25;;;;;9.96;48.52;101717.06;4963497;28;45520;-83
2022/03/10 05:38:40;;;;;;;;;35.75;30.50;;;;;9.88;48.72;101716.94;4969694;28;45385;-84
2022/03/10 05:41:06;;;;;;;;;35.25;28.00;;;;;9.77;48.90;101701.00;4952146;28;46103;-84
2022/03/10 05:43:32;;;;;;;;;36.00;28.50;;;;;9.71;48.88;101693.91;4952512;28;45178;-84
2022/03/10 05:46:01;;;;;;;;;33.00;30.00;;;;;9.72;48.74;101706.19;4949144;28;45381;-83
2022/03/10 05:48:32;;;;;;;;;33.25;28.00;;;;;9.82;48.76;101724.75;4950180;28;45312;-84
2022/03/10 05:50:58;;;;;;;;;29.75;28.75;;;;;9.76;48.91;101709.78;4949816;28;47271;-84
2022/03/10 05:53:24;;;;;;;;;32.00;29.25;;;;;9.70;49.00;101705.31;4952157;28;45302;-84
2022/03/10 05:55:52;;;;;;;;;37.50;31.75;;;;;9.82;49.05;101728.25;4974666;28;45492;-83
2022/03/10 05:58:22;;;;;;;;;34.25;30.25;;;;;9.82;49.02;101730.91;4944613;28;45494;-84
2022/03/10 06:00:48;;;;;;;;;34.00;31.50;;;;;9.69;49.13;101707.91;4959040;28;47016;-84
2022/03/10 06:03:14;;;;;;;;;35.75;33.50;;;;;9.64;48.99;101705.19;4958275;28;45282;-85
2022/03/10 06:05:39;;;;;;;;;31.00;26.75;;;;;9.70;49.21;101712.28;4951576;28;45340;-85
2022/03/10 06:08:09;;;;;;;;;35.50;31.00;;;;;9.67;48.87;101713.13;4963438;28;45248;-84
2022/03/10 06:10:37;;;;;;;;;33.75;30.25;;;;;9.70;48.95;101717.53;4964363;28;45442;-84
2022/03/10 06:13:06;;;;;;;;;34.25;28.00;;;;;9.75;49.29;101726.38;4945255;28;45242;-85
2022/03/10 06:15:31;;;;;;;;;31.25;28.50;;;;;9.67;49.28;101710.50;4967779;28;45433;-85
2022/03/10 06:18:10;;;;;;;;;32.00;29.75;;;;;9.59;49.25;101695.47;4960848;28;45474;-84
2022/03/10 06:20:35;;;;;;;;;37.00;29.00;;;;;9.74;49.56;101718.50;4941389;28;48022;-84
2022/03/10 06:23:01;;;;;;;;;36.25;32.50;;;;;9.57;49.36;101695.47;4955172;28;45353;-83
2022/03/10 06:25:36;;;;;;;;;38.50;30.75;;;;;9.64;49.51;101713.06;4951269;28;45295;-84
2022/03/10 06:28:04;;;;;;;;;37.25;33.75;;;;;9.71;49.53;101728.09;4962994;28;45241;-83
2022/03/10 06:30:33;;;;;;;;;39.50;35.25;;;;;9.72;50.15;101728.97;4950970;28;45254;-83
2022/03/10 06:32:58;;;;;;;;;39.25;34.50;;;;;9.69;49.50;101726.31;4960255;28;45368;-84
2022/03/10 06:35:24;;;;;;;;;33.25;27.25;;;;;9.57;49.71;101710.31;4960537;28;45388;-83
2022/03/10 06:37:49;;;;;;;;;30.75;25.50;;;;;9.66;49.76;101735.03;4958366;28;45308;-84
2022/03/10 06:40:17;;;;;;;;;33.75;32.25;;;;;9.72;49.99;101734.25;4969400;28;46214;-81
2022/03/10 06:43:33;;;;;;;;;38.50;28.25;;;;;9.61;49.75;101713.03;4942746;28;45221;-84
2022/03/10 06:49:46;;;;;;;;;34.00;27.50;;;;;9.61;50.08;101726.19;4929270;28;45483;-84
2022/03/10 06:53:02;;;;;;;;;;;;;;;;;;;;;
2022/03/10 06:55:23;;;;;;;;;35.25;31.75;;;;;9.73;50.09;101738.66;4935388;28;45211;-82
2022/03/10 06:58:35;;;;;;;;;40.50;31.25;;;;;9.72;49.99;101728.97;4939724;28;45388;-82
2022/03/10 07:01:06;;;;;;;;;32.25;28.50;;;;;9.76;50.06;101736.06;4937434;28;45418;-82
2022/03/10 07:03:39;;;;;;;;;39.25;33.00;;;;;9.74;50.26;101736.91;4937889;28;48611;-83
2022/03/10 07:06:12;;;;;;;;;34.50;29.50;;;;;9.79;50.33;101746.63;4965242;28;45283;-84
2022/03/10 07:09:18;;;;;;;;;;;;;;;;;;;;;
2022/03/10 07:18:16;;;;;;;;;38.75;33.00;;;;;9.68;50.15;101729.81;4956774;28;45436;-81
2022/03/10 07:20:50;;;;;;;;;37.50;31.75;;;;;9.71;50.40;101732.47;4949443;28;45422;-82
2022/03/10 07:23:18;;;;;;;;;32.00;29.50;;;;;9.67;50.34;101726.25;4962544;28;45280;-82
2022/03/10 07:25:51;;;;;;;;;33.00;30.00;;;;;9.76;50.61;101743.97;4964341;28;46979;-82
2022/03/10 07:28:43;;;;;;;;;35.00;32.75;;;;;9.83;50.57;101753.69;4945842;28;45446;-83
2022/03/10 07:31:12;;;;;;;;;31.25;28.00;;;;;9.69;50.38;101728.94;4972523;28;45275;-82
2022/03/10 07:33:42;;;;;;;;;34.25;31.25;;;;;9.78;50.73;101743.97;4956201;28;45599;-83
2022/03/10 07:36:13;;;;;;;;;33.50;30.25;;;;;9.93;50.48;101760.00;4955969;28;47437;-83
2022/03/10 07:39:18;;;;;;;;;37.75;33.25;;;;;9.81;50.67;101736.13;4961091;28;45372;-83
2022/03/10 07:41:48;;;;;;;;;34.25;30.50;;;;;9.80;50.97;101739.63;4961818;28;45474;-84
2022/03/10 07:44:18;;;;;;;;;35.00;33.25;;;;;9.83;50.47;101742.28;4942192;28;45558;-83
2022/03/10 07:46:54;;;;;;;;;;;;;;;;;;;;;
2022/03/10 07:49:24;;;;;;;;;35.25;32.50;;;;;9.90;50.75;101746.78;4941369;28;73152;-83
2022/03/10 07:51:55;;;;;;;;;39.00;31.50;;;;;10.00;50.80;101753.09;4963053;28;45450;-84
2022/03/10 07:54:22;;;;;;;;;39.50;33.75;;;;;10.03;51.01;101755.75;4955668;28;45928;-84
2022/03/10 07:56:57;;;;;;;;;40.25;33.75;;;;;10.09;51.00;101767.25;4953626;28;45655;-84
2022/03/10 07:59:47;;;;;;;;;43.25;34.25;;;;;10.01;50.84;101763.63;4955770;28;45393;-83
2022/03/10 08:02:21;;;;;;;;;34.75;34.00;;;;;9.92;50.85;101745.97;4958474;28;45369;-85
2022/03/10 08:04:51;;;;;;;;;35.75;29.50;;;;;10.08;51.12;101769.88;4964309;28;45968;-87
2022/03/10 08:07:32;;;;;;;;;36.50;32.75;;;;;9.94;50.80;101746.88;4943388;28;45258;-88
2022/03/10 08:10:29;;;;;;;;;37.50;31.75;;;;;10.07;51.08;101766.34;4981417;28;45517;-88
2022/03/10 08:12:59;;;;;;;;;36.75;32.75;;;;;10.05;51.07;101748.75;4949438;28;45389;-87
2022/03/10 08:15:33;;;;;;;;;37.00;33.25;;;;;10.26;50.92;101771.88;4975892;28;45221;-89
2022/03/10 08:17:59;;;;;;;;;38.50;32.25;;;;;10.28;51.23;101775.44;4975535;28;46874;-85
2022/03/10 08:20:28;;;;;;;;;39.50;33.00;;;;;10.25;51.29;101760.47;4948773;28;44620;-84
2022/03/10 08:23:09;;;;;;;;;35.75;32.00;;;;;10.38;51.09;101769.44;4962620;28;45425;-86
2022/03/10 08:26:18;;;;;;;;;33.00;32.00;;;;;10.47;51.17;101769.56;4966928;28;45281;-86
2022/03/10 08:28:53;;;;;;;;;38.00;35.75;;;;;10.44;50.82;101751.09;4933614;28;48083;-85
2022/03/10 08:31:27;;;;;;;;;38.75;30.50;;;;;10.60;50.79;101758.31;4953374;28;45487;-86
2022/03/10 08:34:22;;;;;;;;;;;;;;;;;;;;;
2022/03/10 08:37:06;;;;;;;;;36.00;31.50;;;;;10.85;50.57;101765.63;4949210;28;72151;-85
2022/03/10 08:46:48;;;;;;;;;33.00;28.25;;;;;11.10;49.94;101753.63;4945155;28;45274;-84
2022/03/10 09:03:46;;;;;;;;;34.25;32.50;;;;;11.75;48.96;101755.97;4839408;29;45566;-87
2022/03/10 09:06:20;;;;;;;;;35.25;29.50;;;;;11.69;49.00;101732.19;4837929;29;48253;-84
2022/03/10 09:09:03;;;;;;;;;;;;;;;;;;;;;
2022/03/10 09:12:14;;;;;;;;;32.00;30.25;;;;;11.84;48.77;101749.88;4870576;29;68241;-88
2022/03/10 09:14:56;;;;;;;;;;;;;;;;;;;;;
2022/03/10 09:17:28;;;;;;;;;32.00;28.25;;;;;12.06;48.58;101753.59;4873969;29;75257;-87
2022/03/10 09:20:18;;;;;;;;;;;;;;;;;;;;;
2022/03/10 09:22:53;;;;;;;;;27.75;27.25;;;;;12.22;48.37;101754.56;4944233;28;69059;-86
2022/03/10 09:25:58;;;;;;;;;32.50;28.25;;;;;12.35;48.15;101751.13;4963901;28;45344;-85
2022/03/10 09:28:35;;;;;;;;;30.25;29.00;;;;;12.39;47.99;101739.69;4943080;28;47904;-89
2022/03/10 09:31:00;;;;;;;;;30.50;26.50;;;;;12.53;47.64;101748.53;4962743;28;45440;-89
2022/03/10 09:33:45;;;;;;;;;29.75;28.25;;;;;12.57;47.67;101741.53;4963474;28;45321;-87
2022/03/10 09:36:11;;;;;;;;;37.00;32.50;;;;;12.63;47.57;101743.31;4944868;28;45376;-83
2022/03/10 09:38:40;;;;;;;;;32.50;28.75;;;;;12.73;47.08;101735.44;4964903;28;46227;-87
2022/03/10 09:41:11;;;;;;;;;28.75;27.25;;;;;12.75;47.39;101725.75;4960463;28;45461;-89
2022/03/10 09:43:39;;;;;;;;;28.50;25.75;;;;;12.81;47.13;101722.25;4963545;28;45444;-89
2022/03/10 09:46:09;;;;;;;;;27.25;25.75;;;;;12.88;47.33;101729.28;4961667;28;45371;-88
2022/03/10 09:48:41;;;;;;;;;26.75;20.75;;;;;13.01;46.93;101733.72;4958941;28;47397;-88
2022/03/10 09:51:07;;;;;;;;;25.25;21.75;;;;;13.06;47.00;101724.94;4965136;28;45363;-88
2022/03/10 09:53:44;;;;;;;;;;;;;;;;;;;;;
2022/03/10 09:56:24;;;;;;;;;20.75;20.00;;;;;13.32;46.83;101731.19;4960684;28;72573;-88
2022/03/10 09:58:57;;;;;;;;;27.00;24.25;;;;;13.38;46.69;101732.94;4962490;28;46447;-89
2022/03/10 10:01:23;;;;;;;;;26.75;22.75;;;;;13.45;46.42;101730.31;4974707;28;45761;-83
2022/03/10 10:03:52;;;;;;;;;23.75;22.00;;;;;13.52;46.31;101727.66;4955383;28;45500;-87
2022/03/10 10:06:19;;;;;;;;;21.75;20.75;;;;;13.61;46.73;101739.13;4976772;28;45449;-87
2022/03/10 10:08:54;;;;;;;;;28.50;23.50;;;;;13.71;46.37;101739.09;4961393;28;46279;-87
2022/03/10 10:11:39;;;;;;;;;24.50;22.00;;;;;13.74;46.13;101723.22;4973901;28;45369;-89
2022/03/10 10:14:10;;;;;;;;;23.00;19.50;;;;;13.87;45.92;101732.91;4970183;28;45479;-89
2022/03/10 10:16:50;;;;;;;;;29.00;24.25;;;;;13.93;45.71;101711.75;4964113;28;45421;-87
2022/03/10 10:19:17;;;;;;;;;20.75;18.00;;;;;14.05;45.69;101708.19;4961076;28;48169;-87
2022/03/10 10:22:13;;;;;;;;;21.25;19.50;;;;;14.12;45.63;101704.63;4956722;28;45338;-87
2022/03/10 10:24:40;;;;;;;;;23.00;21.50;;;;;14.25;45.44;101709.00;4958868;28;45432;-86
2022/03/10 10:27:17;;;;;;;;;24.00;23.00;;;;;14.39;45.54;101713.38;4957351;28;45375;-84
2022/03/10 10:29:51;;;;;;;;;23.00;21.75;;;;;14.39;45.19;101697.47;4940161;28;46943;-86
2022/03/10 10:32:34;;;;;;;;;22.75;21.25;;;;;14.50;45.12;101704.50;4941329;28;45420;-87
2022/03/10 10:35:08;;;;;;;;;21.00;19.25;;;;;14.63;44.71;101704.47;4930111;28;45276;-88
2022/03/10 10:37:40;;;;;;;;;24.75;24.25;;;;;14.62;45.03;101690.34;4941698;28;45796;-87
2022/03/10 10:40:10;;;;;;;;;20.50;18.00;;;;;14.79;44.92;101703.50;4942881;28;46077;-86
2022/03/10 10:42:47;;;;;;;;;21.25;21.00;;;;;14.82;44.37;101692.00;4942294;28;45476;-86
2022/03/10 10:45:45;;;;;;;;;19.50;17.75;;;;;14.96;44.17;101688.34;4943024;28;45525;-89
2022/03/10 10:48:12;;;;;;;;;20.50;19.50;;;;;15.11;44.37;101689.16;4890101;28;45491;-88
2022/03/10 10:53:47;;;;;;;;;22.00;19.00;;;;;15.37;43.97;101673.91;4931002;28;45448;-86
2022/03/10 10:56:16;;;;;;;;;21.75;19.00;;;;;15.49;43.88;101670.25;4936444;28;45489;-87
2022/03/10 10:58:45;;;;;;;;;20.00;18.00;;;;;15.56;43.49;101668.44;4940932;28;45340;-89
2022/03/10 11:01:36;;;;;;;;;20.50;18.75;;;;;15.71;43.59;101663.00;4942384;28;47944;-88
2022/03/10 11:04:12;;;;;;;;;25.00;20.00;;;;;15.87;42.94;101663.72;4941787;28;45285;-87
2022/03/10 11:06:48;;;;;;;;;;;;;;;;;;;;;
2022/03/10 11:09:23;;;;;;;;;17.00;15.50;;;;;16.13;43.03;101659.91;4951406;28;73048;-89
2022/03/10 11:12:39;;;;;;;;;;;;;;;;;;;;;
2022/03/10 11:15:12;;;;;;;;;15.75;15.00;;;;;16.45;42.45;101654.19;4940267;28;72825;-88
2022/03/10 11:17:45;;;;;;;;;23.00;20.00;;;;;16.49;42.18;101635.50;4941801;28;45266;-90
2022/03/10 11:21:12;;;;;;;;;;;;;;;;;;;;;
2022/03/10 11:24:24;;;;;;;;;17.25;16.25;;;;;16.85;41.24;101627.03;4923468;28;74207;-90
2022/03/10 11:27:03;;;;;;;;;17.25;15.00;;;;;17.03;41.55;101633.88;4947157;28;45495;-85
2022/03/10 11:29:58;;;;;;;;;15.75;14.50;;;;;17.15;41.39;101630.97;4947414;28;45524;-88
2022/03/10 11:39:52;;;;;;;;;15.25;13.00;;;;;17.32;40.36;101599.66;4933212;28;45714;-89
2022/03/10 12:33:06;;;;;;;;;13.75;13.75;;;;;19.46;36.88;101542.38;4947489;28;45455;-79
2022/03/10 12:35:36;;;;;;;;;13.50;12.00;;;;;19.54;37.32;101532.38;4964550;28;46483;-82
2022/03/10 12:45:19;;;;;;;;;14.75;13.50;;;;;20.17;35.50;101530.50;4940427;28;45287;-86
2022/03/10 13:01:28;;;;;;;;;11.00;11.00;;;;;20.69;34.69;101501.25;4823879;29;46434;-83
2022/03/10 13:04:48;;;;;;;;;;;;;;;;;;;;;
2022/03/10 13:08:02;;;;;;;;;11.00;10.00;;;;;20.72;34.02;101495.78;4825316;29;68747;-82
2022/03/10 13:10:28;;;;;;;;;10.25;10.25;;;;;20.77;33.76;101484.91;4826356;29;45556;-82
2022/03/10 13:12:59;;;;;;;;;12.75;12.00;;;;;20.88;33.99;101480.09;4860395;29;48122;-83
2022/03/10 13:15:38;;;;;;;;;8.75;8.25;;;;;21.14;33.63;101490.75;4944513;28;45582;-83
2022/03/10 13:18:06;;;;;;;;;14.00;11.25;;;;;21.34;33.70;101481.97;4960332;28;45537;-82
2022/03/10 13:24:48;;;;;;;;;11.50;11.00;;;;;21.73;32.58;101467.16;4950326;28;45814;-83
2022/03/10 13:27:38;;;;;;;;;;;;;;;;;;;;;
2022/03/10 13:36:49;;;;;;;;;8.75;8.75;;;;;23.05;30.92;101440.28;4958875;28;45760;-82
2022/03/10 13:42:46;;;;;;;;;8.33;7.33;;;;;23.55;29.61;101445.16;4972880;28;45504;-83
2022/03/10 14:05:21;;;;;;;;;14.00;12.67;;;;;31.59;22.15;101401.94;4962505;28;45460;-83
2022/03/10 14:22:49;;;;;;;;;9.33;9.00;;;;;25.86;23.63;101377.59;4752966;29;45563;-84
2022/03/10 14:28:47;;;;;;;;;9.00;9.00;;;;;24.61;24.32;101384.34;4734143;29;45566;-83
2022/03/10 14:31:26;;;;;;;;;;;;;;;;;;;;;
2022/03/10 14:38:10;;;;;;;;;;;;;;;;;;;;;
2022/03/10 15:00:00;;;;;;;;;;;;;;;;;;;;;
2022/03/10 15:06:23;;;;;;;;;9.00;8.67;;;;;23.95;25.45;101336.56;4739473;29;45543;-82
2022/03/10 15:08:51;;;;;;;;;11.67;10.67;;;;;23.86;25.72;101318.19;4694366;30;45391;-82
2022/03/10 15:11:18;;;;;;;;;7.67;7.67;;;;;23.96;26.42;101330.22;4765759;29;44866;-81
2022/03/10 15:13:44;;;;;;;;;9.67;8.33;;;;;24.02;25.95;101317.44;4916087;28;45498;-78
2022/03/10 15:16:16;;;;;;;;;13.00;11.00;;;;;24.11;25.33;101327.69;4969940;28;47015;-81
2022/03/10 15:19:18;;;;;;;;;;;;;;;;;;;;;
2022/03/10 15:21:54;;;;;;;;;10.67;10.00;;;;;23.83;25.44;101312.09;4959925;28;67631;-81
2022/03/10 15:24:33;;;;;;;;;;;;;;;;;;;;;
2022/03/10 15:27:06;;;;;;;;;13.75;12.75;;;;;24.09;25.86;101311.66;4947065;28;73112;-82
2022/03/10 15:33:28;;;;;;;;;;;;;;;;;;;;;
2022/03/10 15:36:25;;;;;;;;;15.50;13.50;;;;;25.37;24.93;101300.34;4939030;28;73230;-81
2022/03/10 15:39:13;;;;;;;;;;;;;;;;;;;;;
2022/03/10 15:46:39;;;;;;;;;;;;;;;;;;;;;
2022/03/10 16:44:51;;;;;;;;;11.00;10.25;;;;;29.49;18.54;101255.31;4991228;28;45457;-86
2022/03/10 16:48:09;;;;;;;;;10.00;10.00;;;;;28.47;19.70;101261.81;4984847;28;45319;-85
2022/03/10 16:58:49;;;;;;;;;;;;;;;;;;;;;
2022/03/10 17:05:47;;;;;;;;;;;;;;;;;;;;;
2022/03/10 17:15:26;;;;;;;;;9.75;9.00;;;;;21.12;25.64;101253.41;4809177;29;45349;-92
2022/03/10 17:17:57;;;;;;;;;9.50;9.50;;;;;20.69;25.97;101257.75;4835249;29;45444;-89
2022/03/10 17:20:35;;;;;;;;;7.25;7.25;;;;;20.36;26.28;101266.03;4840438;29;45581;-82
2022/03/10 17:31:21;;;;;;;;;9.50;8.75;;;;;19.43;27.96;101263.84;4868530;28;45633;-83
2022/03/10 17:54:59;;;;;;;;;16.50;14.50;;;;;17.96;31.96;101259.19;5804511;23;45799;-85
2022/03/10 18:09:14;;;;;;;;;;;;;;;;;;;;;
2022/03/10 18:15:38;;;;;;;;;;;;;;;;;;;;;
2022/03/10 18:25:27;;;;;;;;;20.00;17.00;;;;;16.88;34.55;101254.63;4875718;29;45438;-89
2022/03/10 18:35:00;;;;;;;;;20.25;18.00;;;;;16.63;35.30;101251.59;4896470;29;45384;-92
2022/03/10 18:38:01;;;;;;;;;20.25;19.75;;;;;16.48;35.43;101235.03;4917255;29;44829;-88
2022/03/10 19:08:16;;;;;;;;;20.75;19.50;;;;;16.08;36.85;101233.16;4875860;28;45495;-89
2022/03/10 19:10:52;;;;;;;;;25.75;23.75;;;;;16.03;37.01;101221.72;4906500;29;47539;-91
2022/03/10 19:28:06;;;;;;;;;;;;;;;;;;;;;
2022/03/10 19:30:39;;;;;;;;;24.00;22.50;;;;;15.84;37.75;101230.94;4726459;29;68032;-88